sensor_id;sensor_type;location;lat;lon;timestamp;temperature;humidity
41694;DHT22;27377;50.666;9.150;2023-03-26T00:00:40;8.00;99.90
41694;DHT22;27377;50.666;9.150;2023-03-26T00:03:08;8.00;99.90
41694;DHT22;27377;50.666;9.150;2023-03-26T00:05:34;8.00;99.90
41694;DHT22;27377;50.666;9.150;2023-03-26T00:08:00;8.00;99.90
41694;DHT22;27377;50.666;9.150;2023-03-26T00:10:27;8.00;99.90
41694;DHT22;27377;50.666;9.150;2023-03-26T00:12:52;8.00;99.90
41694;DHT22;27377;50.666;9.150;2023-03-26T00:15:18;8.00;99.90
41694;DHT22;27377;50.666;9.150;2023-03-26T00:17:43;8.00;99.90
41694;DHT22;27377;50.666;9.150;2023-03-26T00:20:11;8.00;99.90
41694;DHT22;27377;50.666;9.150;2023-03-26T00:22:37;8.00;99.90
41694;DHT22;27377;50.666;9.150;2023-03-26T00:25:04;8.00;99.90
41694;DHT22;27377;50.666;9.150;2023-03-26T00:27:31;8.00;99.90
41694;DHT22;27377;50.666;9.150;2023-03-26T00:29:58;8.00;99.90
41694;DHT22;27377;50.666;9.150;2023-03-26T00:32:26;8.00;99.90
41694;DHT22;27377;50.666;9.150;2023-03-26T00:34:53;8.00;99.90
41694;DHT22;27377;50.666;9.150;2023-03-26T00:37:20;8.00;99.90
41694;DHT22;27377;50.666;9.150;2023-03-26T00:39:52;8.00;99.90
41694;DHT22;27377;50.666;9.150;2023-03-26T00:42:17;8.00;99.90
41694;DHT22;27377;50.666;9.150;2023-03-26T00:44:43;8.00;99.90
41694;DHT22;27377;50.666;9.150;2023-03-26T00:47:08;8.10;99.90
41694;DHT22;27377;50.666;9.150;2023-03-26T00:49:34;8.10;99.90
41694;DHT22;27377;50.666;9.150;2023-03-26T00:52:00;8.10;99.90
41694;DHT22;27377;50.666;9.150;2023-03-26T00:54:27;8.10;99.90
41694;DHT22;27377;50.666;9.150;2023-03-26T00:56:53;8.10;99.90
41694;DHT22;27377;50.666;9.150;2023-03-26T00:59:21;8.10;99.90
41694;DHT22;27377;50.666;9.150;2023-03-26T01:01:47;8.10;99.90
41694;DHT22;27377;50.666;9.150;2023-03-26T01:04:28;8.10;99.90
41694;DHT22;27377;50.666;9.150;2023-03-26T01:06:56;8.10;99.90
41694;DHT22;27377;50.666;9.150;2023-03-26T01:09:32;8.10;99.90
41694;DHT22;27377;50.666;9.150;2023-03-26T01:12:00;8.10;99.90
41694;DHT22;27377;50.666;9.150;2023-03-26T01:14:26;8.10;99.90
41694;DHT22;27377;50.666;9.150;2023-03-26T01:17:02;8.10;99.90
41694;DHT22;27377;50.666;9.150;2023-03-26T01:22:23;8.10;99.90
41694;DHT22;27377;50.666;9.150;2023-03-26T01:24:49;8.10;99.90
41694;DHT22;27377;50.666;9.150;2023-03-26T01:27:34;8.10;99.90
41694;DHT22;27377;50.666;9.150;2023-03-26T01:30:24;8.10;99.90
41694;DHT22;27377;50.666;9.150;2023-03-26T01:33:05;8.10;99.90
41694;DHT22;27377;50.666;9.150;2023-03-26T01:35:50;8.10;99.90
41694;DHT22;27377;50.666;9.150;2023-03-26T01:38:39;8.10;99.90
41694;DHT22;27377;50.666;9.150;2023-03-26T01:46:44;8.10;99.90
41694;DHT22;27377;50.666;9.150;2023-03-26T01:49:10;8.10;99.90
41694;DHT22;27377;50.666;9.150;2023-03-26T01:51:38;8.10;99.90
41694;DHT22;27377;50.666;9.150;2023-03-26T01:54:07;8.10;99.90
41694;DHT22;27377;50.666;9.150;2023-03-26T02:02:23;8.10;99.90
41694;DHT22;27377;50.666;9.150;2023-03-26T02:05:06;8.10;99.90
41694;DHT22;27377;50.666;9.150;2023-03-26T02:07:34;8.10;99.90
41694;DHT22;27377;50.666;9.150;2023-03-26T02:10:15;8.00;99.90
41694;DHT22;27377;50.666;9.150;2023-03-26T02:12:43;8.10;99.90
41694;DHT22;27377;50.666;9.150;2023-03-26T02:15:10;8.00;99.90
41694;DHT22;27377;50.666;9.150;2023-03-26T02:17:36;8.00;99.90
41694;DHT22;27377;50.666;9.150;2023-03-26T02:20:06;8.10;99.90
41694;DHT22;27377;50.666;9.150;2023-03-26T02:22:33;8.00;99.90
41694;DHT22;27377;50.666;9.150;2023-03-26T02:25:09;8.10;99.90
41694;DHT22;27377;50.666;9.150;2023-03-26T02:27:35;8.10;99.90
41694;DHT22;27377;50.666;9.150;2023-03-26T02:30:05;8.10;99.90
41694;DHT22;27377;50.666;9.150;2023-03-26T02:32:31;8.00;99.90
41694;DHT22;27377;50.666;9.150;2023-03-26T02:34:57;8.00;99.90
41694;DHT22;27377;50.666;9.150;2023-03-26T02:37:22;8.00;99.90
41694;DHT22;27377;50.666;9.150;2023-03-26T02:39:48;8.00;99.90
41694;DHT22;27377;50.666;9.150;2023-03-26T02:42:13;8.00;99.90
41694;DHT22;27377;50.666;9.150;2023-03-26T02:44:40;8.00;99.90
41694;DHT22;27377;50.666;9.150;2023-03-26T02:47:06;8.00;99.90
41694;DHT22;27377;50.666;9.150;2023-03-26T02:49:32;8.00;99.90
41694;DHT22;27377;50.666;9.150;2023-03-26T02:51:58;8.00;99.90
41694;DHT22;27377;50.666;9.150;2023-03-26T02:54:24;8.00;99.90
41694;DHT22;27377;50.666;9.150;2023-03-26T02:56:50;8.00;99.90
41694;DHT22;27377;50.666;9.150;2023-03-26T02:59:16;8.00;99.90
41694;DHT22;27377;50.666;9.150;2023-03-26T03:01:42;8.00;99.90
41694;DHT22;27377;50.666;9.150;2023-03-26T03:04:11;8.00;99.90
41694;DHT22;27377;50.666;9.150;2023-03-26T03:06:37;8.00;99.90
41694;DHT22;27377;50.666;9.150;2023-03-26T03:09:10;7.90;99.90
41694;DHT22;27377;50.666;9.150;2023-03-26T03:11:40;7.90;99.90
41694;DHT22;27377;50.666;9.150;2023-03-26T03:14:05;7.90;99.90
41694;DHT22;27377;50.666;9.150;2023-03-26T03:16:31;7.90;99.90
41694;DHT22;27377;50.666;9.150;2023-03-26T03:18:57;7.90;99.90
41694;DHT22;27377;50.666;9.150;2023-03-26T03:21:24;7.90;99.90
41694;DHT22;27377;50.666;9.150;2023-03-26T03:23:50;7.80;99.90
41694;DHT22;27377;50.666;9.150;2023-03-26T03:26:18;7.90;99.90
41694;DHT22;27377;50.666;9.150;2023-03-26T03:28:47;7.80;99.90
41694;DHT22;27377;50.666;9.150;2023-03-26T03:31:13;7.80;99.90
41694;DHT22;27377;50.666;9.150;2023-03-26T03:33:39;7.70;99.90
41694;DHT22;27377;50.666;9.150;2023-03-26T03:36:11;7.70;99.90
41694;DHT22;27377;50.666;9.150;2023-03-26T03:38:38;7.70;99.90
41694;DHT22;27377;50.666;9.150;2023-03-26T03:41:05;7.60;99.90
41694;DHT22;27377;50.666;9.150;2023-03-26T03:43:31;7.60;99.90
41694;DHT22;27377;50.666;9.150;2023-03-26T03:45:57;7.60;99.90
41694;DHT22;27377;50.666;9.150;2023-03-26T03:48:23;7.60;99.90
41694;DHT22;27377;50.666;9.150;2023-03-26T03:50:49;7.60;99.90
41694;DHT22;27377;50.666;9.150;2023-03-26T03:53:15;7.50;99.90
41694;DHT22;27377;50.666;9.150;2023-03-26T03:55:44;7.50;99.90
41694;DHT22;27377;50.666;9.150;2023-03-26T03:58:17;7.60;99.90
41694;DHT22;27377;50.666;9.150;2023-03-26T04:00:50;7.50;99.90
41694;DHT22;27377;50.666;9.150;2023-03-26T04:03:16;7.50;99.90
41694;DHT22;27377;50.666;9.150;2023-03-26T04:05:43;7.50;99.90
41694;DHT22;27377;50.666;9.150;2023-03-26T04:08:15;7.50;99.90
41694;DHT22;27377;50.666;9.150;2023-03-26T04:10:42;7.50;99.90
41694;DHT22;27377;50.666;9.150;2023-03-26T04:13:12;7.40;99.90
41694;DHT22;27377;50.666;9.150;2023-03-26T04:15:38;7.30;99.90
41694;DHT22;27377;50.666;9.150;2023-03-26T04:18:05;7.30;99.90
41694;DHT22;27377;50.666;9.150;2023-03-26T04:20:44;7.30;99.90
41694;DHT22;27377;50.666;9.150;2023-03-26T04:23:14;7.20;99.90
41694;DHT22;27377;50.666;9.150;2023-03-26T04:25:43;7.20;99.90
41694;DHT22;27377;50.666;9.150;2023-03-26T04:28:18;7.10;99.90
41694;DHT22;27377;50.666;9.150;2023-03-26T04:30:46;7.00;99.90
41694;DHT22;27377;50.666;9.150;2023-03-26T04:33:13;7.00;99.90
41694;DHT22;27377;50.666;9.150;2023-03-26T04:35:40;7.00;99.90
41694;DHT22;27377;50.666;9.150;2023-03-26T04:38:06;6.90;99.90
41694;DHT22;27377;50.666;9.150;2023-03-26T04:40:32;6.90;99.90
41694;DHT22;27377;50.666;9.150;2023-03-26T04:43:00;6.90;99.90
41694;DHT22;27377;50.666;9.150;2023-03-26T04:45:27;6.90;99.90
41694;DHT22;27377;50.666;9.150;2023-03-26T04:47:58;6.80;99.90
41694;DHT22;27377;50.666;9.150;2023-03-26T04:50:24;6.80;99.90
41694;DHT22;27377;50.666;9.150;2023-03-26T04:52:53;6.80;99.90
41694;DHT22;27377;50.666;9.150;2023-03-26T04:55:26;6.90;99.90
41694;DHT22;27377;50.666;9.150;2023-03-26T04:57:56;6.90;99.90
41694;DHT22;27377;50.666;9.150;2023-03-26T05:00:24;6.90;99.90
41694;DHT22;27377;50.666;9.150;2023-03-26T05:02:50;6.90;99.90
41694;DHT22;27377;50.666;9.150;2023-03-26T05:05:20;7.00;99.90
41694;DHT22;27377;50.666;9.150;2023-03-26T05:07:46;7.00;99.90
41694;DHT22;27377;50.666;9.150;2023-03-26T05:10:14;7.00;99.90
41694;DHT22;27377;50.666;9.150;2023-03-26T05:12:40;7.00;99.90
41694;DHT22;27377;50.666;9.150;2023-03-26T05:15:06;7.00;99.90
41694;DHT22;27377;50.666;9.150;2023-03-26T05:17:32;7.10;99.90
41694;DHT22;27377;50.666;9.150;2023-03-26T05:19:59;7.10;99.90
41694;DHT22;27377;50.666;9.150;2023-03-26T05:22:25;7.10;99.90
41694;DHT22;27377;50.666;9.150;2023-03-26T05:24:51;7.10;99.90
41694;DHT22;27377;50.666;9.150;2023-03-26T05:27:17;7.10;99.90
41694;DHT22;27377;50.666;9.150;2023-03-26T05:29:44;7.10;99.90
41694;DHT22;27377;50.666;9.150;2023-03-26T05:32:11;7.20;99.90
41694;DHT22;27377;50.666;9.150;2023-03-26T05:34:38;7.20;99.90
41694;DHT22;27377;50.666;9.150;2023-03-26T05:37:04;7.20;99.90
41694;DHT22;27377;50.666;9.150;2023-03-26T05:39:31;7.20;99.90
41694;DHT22;27377;50.666;9.150;2023-03-26T05:41:57;7.20;99.90
41694;DHT22;27377;50.666;9.150;2023-03-26T05:44:22;7.20;99.90
41694;DHT22;27377;50.666;9.150;2023-03-26T05:46:48;7.20;99.90
41694;DHT22;27377;50.666;9.150;2023-03-26T05:49:13;7.30;99.90
41694;DHT22;27377;50.666;9.150;2023-03-26T05:51:39;7.30;99.90
41694;DHT22;27377;50.666;9.150;2023-03-26T05:54:04;7.30;99.90
41694;DHT22;27377;50.666;9.150;2023-03-26T05:56:30;7.30;99.90
41694;DHT22;27377;50.666;9.150;2023-03-26T05:58:56;7.30;99.90
41694;DHT22;27377;50.666;9.150;2023-03-26T06:01:22;7.30;99.90
41694;DHT22;27377;50.666;9.150;2023-03-26T06:03:49;7.40;99.90
41694;DHT22;27377;50.666;9.150;2023-03-26T06:06:17;7.40;99.90
41694;DHT22;27377;50.666;9.150;2023-03-26T06:08:51;7.40;99.90
41694;DHT22;27377;50.666;9.150;2023-03-26T06:11:18;7.40;99.90
41694;DHT22;27377;50.666;9.150;2023-03-26T06:13:44;7.40;99.90
41694;DHT22;27377;50.666;9.150;2023-03-26T06:16:11;7.40;99.90
41694;DHT22;27377;50.666;9.150;2023-03-26T06:18:38;7.40;99.90
41694;DHT22;27377;50.666;9.150;2023-03-26T06:21:05;7.40;99.90
41694;DHT22;27377;50.666;9.150;2023-03-26T06:23:31;7.40;99.90
41694;DHT22;27377;50.666;9.150;2023-03-26T06:25:57;7.50;99.90
41694;DHT22;27377;50.666;9.150;2023-03-26T06:28:24;7.50;99.90
41694;DHT22;27377;50.666;9.150;2023-03-26T06:30:50;7.50;99.90
41694;DHT22;27377;50.666;9.150;2023-03-26T06:33:15;7.50;99.90
41694;DHT22;27377;50.666;9.150;2023-03-26T06:35:42;7.60;99.90
41694;DHT22;27377;50.666;9.150;2023-03-26T06:38:08;7.60;99.90
41694;DHT22;27377;50.666;9.150;2023-03-26T06:40:34;7.60;99.90
41694;DHT22;27377;50.666;9.150;2023-03-26T06:43:00;7.60;99.90
41694;DHT22;27377;50.666;9.150;2023-03-26T06:45:26;7.60;99.90
41694;DHT22;27377;50.666;9.150;2023-03-26T06:47:52;7.60;99.90
41694;DHT22;27377;50.666;9.150;2023-03-26T06:50:18;7.60;99.90
41694;DHT22;27377;50.666;9.150;2023-03-26T06:52:43;7.60;99.90
41694;DHT22;27377;50.666;9.150;2023-03-26T06:55:09;7.70;99.90
41694;DHT22;27377;50.666;9.150;2023-03-26T06:57:35;7.70;99.90
41694;DHT22;27377;50.666;9.150;2023-03-26T07:00:02;7.70;99.90
41694;DHT22;27377;50.666;9.150;2023-03-26T07:02:28;7.70;99.90
41694;DHT22;27377;50.666;9.150;2023-03-26T07:04:54;7.70;99.90
41694;DHT22;27377;50.666;9.150;2023-03-26T07:07:19;7.80;99.90
41694;DHT22;27377;50.666;9.150;2023-03-26T07:09:48;7.80;99.90
41694;DHT22;27377;50.666;9.150;2023-03-26T07:12:14;7.80;99.90
41694;DHT22;27377;50.666;9.150;2023-03-26T07:14:40;7.80;99.90
41694;DHT22;27377;50.666;9.150;2023-03-26T07:17:05;7.80;99.90
41694;DHT22;27377;50.666;9.150;2023-03-26T07:19:31;7.80;99.90
41694;DHT22;27377;50.666;9.150;2023-03-26T07:21:57;7.80;99.90
41694;DHT22;27377;50.666;9.150;2023-03-26T07:24:24;7.80;99.90
41694;DHT22;27377;50.666;9.150;2023-03-26T07:32:15;7.90;99.90
41694;DHT22;27377;50.666;9.150;2023-03-26T07:35:04;7.90;99.90
41694;DHT22;27377;50.666;9.150;2023-03-26T07:37:49;7.90;99.90
41694;DHT22;27377;50.666;9.150;2023-03-26T07:40:41;7.90;99.90
41694;DHT22;27377;50.666;9.150;2023-03-26T07:43:18;7.90;99.90
41694;DHT22;27377;50.666;9.150;2023-03-26T07:45:45;7.90;99.90
41694;DHT22;27377;50.666;9.150;2023-03-26T07:48:20;7.90;99.90
41694;DHT22;27377;50.666;9.150;2023-03-26T07:50:50;7.90;99.90
41694;DHT22;27377;50.666;9.150;2023-03-26T07:53:16;8.00;99.90
41694;DHT22;27377;50.666;9.150;2023-03-26T07:58:55;8.00;99.90
41694;DHT22;27377;50.666;9.150;2023-03-26T08:07:14;8.00;99.90
41694;DHT22;27377;50.666;9.150;2023-03-26T08:12:19;8.10;99.90
41694;DHT22;27377;50.666;9.150;2023-03-26T08:17:53;8.10;99.90
41694;DHT22;27377;50.666;9.150;2023-03-26T08:23:11;8.10;99.90
41694;DHT22;27377;50.666;9.150;2023-03-26T08:31:16;8.20;99.90
41694;DHT22;27377;50.666;9.150;2023-03-26T08:33:42;8.20;99.90
41694;DHT22;27377;50.666;9.150;2023-03-26T08:36:08;8.30;99.90
41694;DHT22;27377;50.666;9.150;2023-03-26T08:38:33;8.30;99.90
41694;DHT22;27377;50.666;9.150;2023-03-26T08:44:03;8.30;99.90
41694;DHT22;27377;50.666;9.150;2023-03-26T08:55:20;8.30;99.90
41694;DHT22;27377;50.666;9.150;2023-03-26T08:58:16;8.30;99.90
41694;DHT22;27377;50.666;9.150;2023-03-26T09:04:20;8.30;99.90
41694;DHT22;27377;50.666;9.150;2023-03-26T09:10:05;8.30;99.90
41694;DHT22;27377;50.666;9.150;2023-03-26T09:12:57;8.30;99.90
41694;DHT22;27377;50.666;9.150;2023-03-26T09:18:26;8.30;99.90
41694;DHT22;27377;50.666;9.150;2023-03-26T09:35:30;8.20;99.90
41694;DHT22;27377;50.666;9.150;2023-03-26T09:41:07;8.20;99.90
41694;DHT22;27377;50.666;9.150;2023-03-26T09:44:04;8.20;99.90
41694;DHT22;27377;50.666;9.150;2023-03-26T09:46:54;8.20;99.90
41694;DHT22;27377;50.666;9.150;2023-03-26T09:49:49;8.20;99.90
41694;DHT22;27377;50.666;9.150;2023-03-26T10:00:34;8.10;99.90
41694;DHT22;27377;50.666;9.150;2023-03-26T10:08:28;8.00;99.90
41694;DHT22;27377;50.666;9.150;2023-03-26T10:16:30;7.90;99.90
41694;DHT22;27377;50.666;9.150;2023-03-26T10:19:18;7.90;99.90
41694;DHT22;27377;50.666;9.150;2023-03-26T10:32:50;7.80;99.90
41694;DHT22;27377;50.666;9.150;2023-03-26T10:35:20;7.80;99.90
41694;DHT22;27377;50.666;9.150;2023-03-26T10:38:23;7.80;99.90
41694;DHT22;27377;50.666;9.150;2023-03-26T10:41:17;7.80;99.90
41694;DHT22;27377;50.666;9.150;2023-03-26T10:52:48;7.80;99.90
41694;DHT22;27377;50.666;9.150;2023-03-26T10:55:17;7.80;99.90
41694;DHT22;27377;50.666;9.150;2023-03-26T10:57:55;7.80;99.90
41694;DHT22;27377;50.666;9.150;2023-03-26T11:00:24;7.80;99.90
41694;DHT22;27377;50.666;9.150;2023-03-26T11:03:16;7.80;99.90
41694;DHT22;27377;50.666;9.150;2023-03-26T11:05:57;7.80;99.90
41694;DHT22;27377;50.666;9.150;2023-03-26T11:08:41;7.80;99.90
41694;DHT22;27377;50.666;9.150;2023-03-26T11:16:45;7.90;99.90
41694;DHT22;27377;50.666;9.150;2023-03-26T11:19:34;7.90;99.90
41694;DHT22;27377;50.666;9.150;2023-03-26T11:22:10;7.80;99.90
41694;DHT22;27377;50.666;9.150;2023-03-26T11:32:44;7.80;99.90
41694;DHT22;27377;50.666;9.150;2023-03-26T11:37:45;7.90;99.90
41694;DHT22;27377;50.666;9.150;2023-03-26T11:40:40;7.90;99.90
41694;DHT22;27377;50.666;9.150;2023-03-26T11:43:09;7.90;99.90
41694;DHT22;27377;50.666;9.150;2023-03-26T11:45:40;8.00;99.90
41694;DHT22;27377;50.666;9.150;2023-03-26T11:48:31;8.00;99.90
41694;DHT22;27377;50.666;9.150;2023-03-26T11:51:10;8.00;99.90
41694;DHT22;27377;50.666;9.150;2023-03-26T11:53:38;8.10;99.90
41694;DHT22;27377;50.666;9.150;2023-03-26T11:56:31;8.10;99.90
41694;DHT22;27377;50.666;9.150;2023-03-26T11:59:17;8.10;99.90
41694;DHT22;27377;50.666;9.150;2023-03-26T12:01:54;8.10;99.90
41694;DHT22;27377;50.666;9.150;2023-03-26T12:10:03;8.20;99.90
41694;DHT22;27377;50.666;9.150;2023-03-26T12:12:40;8.10;99.90
41694;DHT22;27377;50.666;9.150;2023-03-26T12:15:17;8.20;99.90
41694;DHT22;27377;50.666;9.150;2023-03-26T12:17:45;8.10;99.90
41694;DHT22;27377;50.666;9.150;2023-03-26T12:22:53;8.10;99.90
41694;DHT22;27377;50.666;9.150;2023-03-26T12:25:24;8.10;99.90
41694;DHT22;27377;50.666;9.150;2023-03-26T12:27:57;8.10;99.90
41694;DHT22;27377;50.666;9.150;2023-03-26T12:30:29;8.10;99.90
41694;DHT22;27377;50.666;9.150;2023-03-26T12:33:01;8.10;99.90
41694;DHT22;27377;50.666;9.150;2023-03-26T12:35:33;8.10;99.90
41694;DHT22;27377;50.666;9.150;2023-03-26T12:38:32;8.20;99.90
41694;DHT22;27377;50.666;9.150;2023-03-26T12:43:41;8.20;99.90
41694;DHT22;27377;50.666;9.150;2023-03-26T12:46:25;8.30;99.90
41694;DHT22;27377;50.666;9.150;2023-03-26T12:49:01;8.30;99.90
41694;DHT22;27377;50.666;9.150;2023-03-26T12:54:22;8.30;99.90
41694;DHT22;27377;50.666;9.150;2023-03-26T12:57:17;8.30;99.90
41694;DHT22;27377;50.666;9.150;2023-03-26T13:00:16;8.30;99.90
41694;DHT22;27377;50.666;9.150;2023-03-26T13:11:08;8.30;99.90
41694;DHT22;27377;50.666;9.150;2023-03-26T13:16:55;8.30;99.90
41694;DHT22;27377;50.666;9.150;2023-03-26T13:19:44;8.30;99.90
41694;DHT22;27377;50.666;9.150;2023-03-26T13:22:23;8.30;99.90
41694;DHT22;27377;50.666;9.150;2023-03-26T13:24:57;8.30;99.90
41694;DHT22;27377;50.666;9.150;2023-03-26T13:27:46;8.30;99.90
41694;DHT22;27377;50.666;9.150;2023-03-26T13:35:55;8.40;99.90
41694;DHT22;27377;50.666;9.150;2023-03-26T13:47:12;8.50;99.90
41694;DHT22;27377;50.666;9.150;2023-03-26T13:49:40;8.50;99.90
41694;DHT22;27377;50.666;9.150;2023-03-26T13:52:07;8.50;99.90
41694;DHT22;27377;50.666;9.150;2023-03-26T13:57:13;8.50;99.90
41694;DHT22;27377;50.666;9.150;2023-03-26T13:59:47;8.50;99.90
41694;DHT22;27377;50.666;9.150;2023-03-26T14:02:36;8.50;99.90
41694;DHT22;27377;50.666;9.150;2023-03-26T14:05:34;8.60;99.90
41694;DHT22;27377;50.666;9.150;2023-03-26T14:08:35;8.60;99.90
41694;DHT22;27377;50.666;9.150;2023-03-26T14:11:13;8.60;99.90
41694;DHT22;27377;50.666;9.150;2023-03-26T14:13:48;8.60;99.90
41694;DHT22;27377;50.666;9.150;2023-03-26T14:16:24;8.60;99.90
41694;DHT22;27377;50.666;9.150;2023-03-26T14:19:03;8.60;99.90
41694;DHT22;27377;50.666;9.150;2023-03-26T14:24:41;8.70;99.90
41694;DHT22;27377;50.666;9.150;2023-03-26T14:27:30;8.70;99.90
41694;DHT22;27377;50.666;9.150;2023-03-26T14:33:19;8.70;99.90
41694;DHT22;27377;50.666;9.150;2023-03-26T14:39:04;8.70;99.90
41694;DHT22;27377;50.666;9.150;2023-03-26T14:41:49;8.70;99.90
41694;DHT22;27377;50.666;9.150;2023-03-26T14:47:01;8.70;99.90
41694;DHT22;27377;50.666;9.150;2023-03-26T14:49:50;8.70;99.90
41694;DHT22;27377;50.666;9.150;2023-03-26T14:55:18;8.70;99.90
41694;DHT22;27377;50.666;9.150;2023-03-26T14:58:16;8.80;99.90
41694;DHT22;27377;50.666;9.150;2023-03-26T15:10:10;8.60;99.90
41694;DHT22;27377;50.666;9.150;2023-03-26T15:27:45;8.30;99.90
41694;DHT22;27377;50.666;9.150;2023-03-26T15:44:50;8.30;99.90
41694;DHT22;27377;50.666;9.150;2023-03-26T15:47:42;8.30;99.90
41694;DHT22;27377;50.666;9.150;2023-03-26T15:50:44;8.30;99.90
41694;DHT22;27377;50.666;9.150;2023-03-26T15:56:06;8.30;99.90
41694;DHT22;27377;50.666;9.150;2023-03-26T16:01:26;8.30;99.90
41694;DHT22;27377;50.666;9.150;2023-03-26T16:04:12;8.30;99.90
41694;DHT22;27377;50.666;9.150;2023-03-26T16:06:57;8.30;99.90
41694;DHT22;27377;50.666;9.150;2023-03-26T16:09:26;8.30;99.90
41694;DHT22;27377;50.666;9.150;2023-03-26T16:11:58;8.20;99.90
41694;DHT22;27377;50.666;9.150;2023-03-26T16:14:47;8.20;99.90
41694;DHT22;27377;50.666;9.150;2023-03-26T16:26:17;8.20;99.90
41694;DHT22;27377;50.666;9.150;2023-03-26T16:41:32;8.20;99.90
41694;DHT22;27377;50.666;9.150;2023-03-26T16:46:58;8.10;99.90
41694;DHT22;27377;50.666;9.150;2023-03-26T16:49:43;8.10;99.90
41694;DHT22;27377;50.666;9.150;2023-03-26T16:52:29;8.10;99.90
41694;DHT22;27377;50.666;9.150;2023-03-26T17:03:33;8.10;99.90
41694;DHT22;27377;50.666;9.150;2023-03-26T17:11:08;8.10;99.90
41694;DHT22;27377;50.666;9.150;2023-03-26T17:19:24;8.00;99.90
41694;DHT22;27377;50.666;9.150;2023-03-26T17:22:00;8.00;99.90
41694;DHT22;27377;50.666;9.150;2023-03-26T17:24:57;8.00;99.90
41694;DHT22;27377;50.666;9.150;2023-03-26T17:27:55;8.00;99.90
41694;DHT22;27377;50.666;9.150;2023-03-26T17:33:34;8.00;99.90
41694;DHT22;27377;50.666;9.150;2023-03-26T17:41:05;7.90;99.90
41694;DHT22;27377;50.666;9.150;2023-03-26T17:48:44;7.90;99.90
41694;DHT22;27377;50.666;9.150;2023-03-26T17:51:39;7.90;99.90
41694;DHT22;27377;50.666;9.150;2023-03-26T17:57:26;7.90;99.90
41694;DHT22;27377;50.666;9.150;2023-03-26T17:59:58;7.90;99.90
41694;DHT22;27377;50.666;9.150;2023-03-26T18:02:51;7.90;99.90
41694;DHT22;27377;50.666;9.150;2023-03-26T18:05:18;7.90;99.90
41694;DHT22;27377;50.666;9.150;2023-03-26T18:11:12;7.90;99.90
41694;DHT22;27377;50.666;9.150;2023-03-26T18:16:18;7.80;99.90
41694;DHT22;27377;50.666;9.150;2023-03-26T18:18:53;7.90;99.90
41694;DHT22;27377;50.666;9.150;2023-03-26T18:21:42;7.90;99.90
41694;DHT22;27377;50.666;9.150;2023-03-26T18:24:20;7.90;99.90
41694;DHT22;27377;50.666;9.150;2023-03-26T18:26:56;7.80;99.90
41694;DHT22;27377;50.666;9.150;2023-03-26T18:29:33;7.80;99.90
41694;DHT22;27377;50.666;9.150;2023-03-26T18:34:37;7.90;99.90
41694;DHT22;27377;50.666;9.150;2023-03-26T18:42:20;7.80;99.90
41694;DHT22;27377;50.666;9.150;2023-03-26T18:44:48;7.80;99.90
41694;DHT22;27377;50.666;9.150;2023-03-26T18:47:15;7.80;99.90
41694;DHT22;27377;50.666;9.150;2023-03-26T18:49:46;7.80;99.90
41694;DHT22;27377;50.666;9.150;2023-03-26T18:52:17;7.80;99.90
41694;DHT22;27377;50.666;9.150;2023-03-26T18:54:46;7.80;99.90
41694;DHT22;27377;50.666;9.150;2023-03-26T18:57:25;7.80;99.90
41694;DHT22;27377;50.666;9.150;2023-03-26T18:59:53;7.80;99.90
41694;DHT22;27377;50.666;9.150;2023-03-26T19:02:20;7.80;99.90
41694;DHT22;27377;50.666;9.150;2023-03-26T19:04:48;7.80;99.90
41694;DHT22;27377;50.666;9.150;2023-03-26T19:07:18;7.80;99.90
41694;DHT22;27377;50.666;9.150;2023-03-26T19:09:47;7.80;99.90
41694;DHT22;27377;50.666;9.150;2023-03-26T19:12:20;7.80;99.90
41694;DHT22;27377;50.666;9.150;2023-03-26T19:17:33;7.80;99.90
41694;DHT22;27377;50.666;9.150;2023-03-26T19:20:02;7.80;99.90
41694;DHT22;27377;50.666;9.150;2023-03-26T19:22:33;7.80;99.90
41694;DHT22;27377;50.666;9.150;2023-03-26T19:25:02;7.80;99.90
41694;DHT22;27377;50.666;9.150;2023-03-26T19:27:30;7.80;99.90
41694;DHT22;27377;50.666;9.150;2023-03-26T19:29:56;7.80;99.90
41694;DHT22;27377;50.666;9.150;2023-03-26T19:32:30;7.70;99.90
41694;DHT22;27377;50.666;9.150;2023-03-26T19:34:58;7.70;99.90
41694;DHT22;27377;50.666;9.150;2023-03-26T19:37:27;7.80;99.90
41694;DHT22;27377;50.666;9.150;2023-03-26T19:40:33;7.80;99.90
41694;DHT22;27377;50.666;9.150;2023-03-26T19:42:56;7.80;99.90
41694;DHT22;27377;50.666;9.150;2023-03-26T19:45:22;7.70;99.90
41694;DHT22;27377;50.666;9.150;2023-03-26T19:47:51;7.70;99.90
41694;DHT22;27377;50.666;9.150;2023-03-26T19:50:23;7.70;99.90
41694;DHT22;27377;50.666;9.150;2023-03-26T19:55:54;7.70;99.90
41694;DHT22;27377;50.666;9.150;2023-03-26T19:58:20;7.60;99.90
41694;DHT22;27377;50.666;9.150;2023-03-26T20:00:46;7.60;99.90
41694;DHT22;27377;50.666;9.150;2023-03-26T20:03:12;7.60;99.90
41694;DHT22;27377;50.666;9.150;2023-03-26T20:05:37;7.50;99.90
41694;DHT22;27377;50.666;9.150;2023-03-26T20:08:12;7.50;99.90
41694;DHT22;27377;50.666;9.150;2023-03-26T20:10:38;7.50;99.90
41694;DHT22;27377;50.666;9.150;2023-03-26T20:13:14;7.40;99.90
41694;DHT22;27377;50.666;9.150;2023-03-26T20:15:43;7.50;99.90
41694;DHT22;27377;50.666;9.150;2023-03-26T20:18:09;7.50;99.90
41694;DHT22;27377;50.666;9.150;2023-03-26T20:20:37;7.50;99.90
41694;DHT22;27377;50.666;9.150;2023-03-26T20:23:09;7.50;99.90
41694;DHT22;27377;50.666;9.150;2023-03-26T20:25:42;7.40;99.90
41694;DHT22;27377;50.666;9.150;2023-03-26T20:28:10;7.40;99.90
41694;DHT22;27377;50.666;9.150;2023-03-26T20:30:36;7.40;99.90
41694;DHT22;27377;50.666;9.150;2023-03-26T20:33:02;7.30;99.90
41694;DHT22;27377;50.666;9.150;2023-03-26T20:35:30;7.30;99.90
41694;DHT22;27377;50.666;9.150;2023-03-26T20:37:56;7.30;99.90
41694;DHT22;27377;50.666;9.150;2023-03-26T20:40:21;7.30;99.90
41694;DHT22;27377;50.666;9.150;2023-03-26T20:42:47;7.30;99.90
41694;DHT22;27377;50.666;9.150;2023-03-26T20:45:18;7.30;99.90
41694;DHT22;27377;50.666;9.150;2023-03-26T20:47:45;7.30;99.90
41694;DHT22;27377;50.666;9.150;2023-03-26T20:50:12;7.30;99.90
41694;DHT22;27377;50.666;9.150;2023-03-26T20:52:40;7.30;99.90
41694;DHT22;27377;50.666;9.150;2023-03-26T20:55:11;7.20;99.90
41694;DHT22;27377;50.666;9.150;2023-03-26T20:57:38;7.20;99.90
41694;DHT22;27377;50.666;9.150;2023-03-26T21:00:04;7.20;99.90
41694;DHT22;27377;50.666;9.150;2023-03-26T21:02:39;7.10;99.90
41694;DHT22;27377;50.666;9.150;2023-03-26T21:05:06;7.10;99.90
41694;DHT22;27377;50.666;9.150;2023-03-26T21:07:40;7.10;99.90
41694;DHT22;27377;50.666;9.150;2023-03-26T21:10:06;7.00;99.90
41694;DHT22;27377;50.666;9.150;2023-03-26T21:12:35;7.00;99.90
41694;DHT22;27377;50.666;9.150;2023-03-26T21:15:05;7.00;99.90
41694;DHT22;27377;50.666;9.150;2023-03-26T21:17:31;6.90;99.90
41694;DHT22;27377;50.666;9.150;2023-03-26T21:19:57;6.90;99.90
41694;DHT22;27377;50.666;9.150;2023-03-26T21:30:43;6.70;99.90
41694;DHT22;27377;50.666;9.150;2023-03-26T21:33:09;6.70;99.90
41694;DHT22;27377;50.666;9.150;2023-03-26T21:35:34;6.70;99.90
41694;DHT22;27377;50.666;9.150;2023-03-26T21:38:02;6.70;99.90
41694;DHT22;27377;50.666;9.150;2023-03-26T21:40:28;6.70;99.90